createdAt,value
2018-02-22T00:00:26.270Z,59.90
2018-02-22T00:02:52.813Z,60.40
2018-02-22T00:05:19.403Z,60.00
2018-02-22T00:07:45.951Z,59.90
2018-02-22T00:10:13.270Z,59.70
2018-02-22T00:12:39.843Z,59.60
2018-02-22T00:15:07.238Z,60.00
2018-02-22T00:17:34.045Z,60.00
2018-02-22T00:20:01.338Z,60.40
2018-02-22T00:22:27.866Z,60.30
2018-02-22T00:24:54.386Z,60.50
2018-02-22T00:27:20.966Z,60.10
2018-02-22T00:29:47.586Z,60.50
2018-02-22T00:32:14.183Z,60.60
2018-02-22T00:34:41.513Z,61.00
2018-02-22T00:37:08.840Z,61.00
2018-02-22T00:39:35.423Z,61.00
2018-02-22T00:42:02.760Z,61.70
2018-02-22T00:44:29.301Z,61.60
2018-02-22T00:46:55.847Z,61.70
2018-02-22T00:49:23.479Z,60.70
2018-02-22T00:51:50.023Z,60.70
2018-02-22T00:54:16.585Z,60.90
2018-02-22T00:56:43.864Z,61.30
2018-02-22T00:59:10.422Z,61.20
2018-02-22T01:01:36.986Z,61.00
2018-02-22T01:04:03.570Z,61.00
2018-02-22T01:06:30.207Z,61.60
2018-02-22T01:08:56.813Z,61.60
2018-02-22T01:11:23.399Z,61.80
2018-02-22T01:13:49.970Z,61.50
2018-02-22T01:16:16.514Z,60.70
2018-02-22T01:18:43.101Z,60.10
2018-02-22T01:21:09.665Z,60.40
2018-02-22T01:23:36.243Z,61.00
2018-02-22T01:26:03.571Z,61.00
2018-02-22T01:28:30.866Z,60.60
2018-02-22T01:30:57.432Z,60.60
2018-02-22T01:33:24.007Z,60.50
2018-02-22T01:35:51.309Z,60.90
2018-02-22T01:38:17.867Z,60.90
2018-02-22T01:40:44.509Z,62.00
2018-02-22T01:43:11.082Z,61.70
2018-02-22T01:45:38.390Z,61.00
2018-02-22T01:48:05.673Z,61.40
2018-02-22T01:50:32.998Z,60.90
2018-02-22T01:52:59.546Z,60.80
2018-02-22T01:55:26.131Z,60.60
2018-02-22T01:57:52.718Z,61.00
2018-02-22T02:00:19.280Z,61.40
2018-02-22T02:02:45.862Z,61.60
2018-02-22T02:05:12.430Z,60.70
2018-02-22T02:07:39.218Z,60.90
2018-02-22T02:10:05.770Z,61.00
2018-02-22T02:12:33.858Z,61.40
2018-02-22T02:15:00.446Z,61.40
2018-02-22T02:17:27.016Z,61.70
2018-02-22T02:19:53.618Z,61.80
2018-02-22T02:22:20.197Z,61.80
2018-02-22T02:24:46.766Z,62.00
2018-02-22T02:27:13.307Z,61.30
2018-02-22T02:29:39.861Z,61.20
2018-02-22T02:32:07.190Z,60.70
2018-02-22T02:34:33.783Z,60.60
2018-02-22T02:37:00.335Z,60.90
2018-02-22T02:39:27.042Z,61.70
2018-02-22T02:41:53.890Z,61.00
2018-02-22T02:44:20.515Z,60.90
2018-02-22T02:46:47.055Z,60.50
2018-02-22T02:49:13.619Z,60.90
2018-02-22T02:51:40.159Z,60.40
2018-02-22T02:54:06.724Z,60.40
2018-02-22T02:56:33.288Z,61.00
2018-02-22T02:58:59.854Z,60.60
2018-02-22T03:01:26.416Z,60.10
2018-02-22T03:03:52.974Z,59.80
2018-02-22T03:06:19.619Z,59.80
2018-02-22T03:08:47.117Z,60.50
2018-02-22T03:11:13.680Z,60.40
2018-02-22T03:13:40.245Z,60.70
2018-02-22T03:16:07.577Z,61.20
2018-02-22T03:18:34.130Z,61.20
2018-02-22T03:21:00.812Z,60.60
2018-02-22T03:23:27.412Z,60.50
2018-02-22T03:25:53.980Z,60.60
2018-02-22T03:28:20.557Z,60.20
2018-02-22T03:30:47.140Z,60.00
2018-02-22T03:33:13.718Z,60.30
2018-02-22T03:35:40.287Z,59.80
2018-02-22T03:38:06.825Z,59.50
2018-02-22T03:40:33.418Z,59.90
2018-02-22T03:42:59.990Z,59.70
2018-02-22T03:45:26.543Z,60.40
2018-02-22T03:47:53.187Z,60.90
2018-02-22T03:50:19.726Z,60.10
2018-02-22T03:52:47.042Z,60.60
2018-02-22T03:55:13.649Z,60.60
2018-02-22T03:57:40.183Z,60.10
2018-02-22T04:00:06.831Z,60.40
2018-02-22T04:02:33.386Z,59.90
2018-02-22T04:04:59.934Z,59.90
2018-02-22T04:07:26.542Z,60.10
2018-02-22T04:09:53.111Z,60.00
2018-02-22T04:12:20.433Z,60.70
2018-02-22T04:14:46.979Z,60.60
2018-02-22T04:17:14.340Z,61.20
2018-02-22T04:19:40.971Z,61.20
2018-02-22T04:22:07.563Z,61.20
2018-02-22T04:24:34.141Z,61.20
2018-02-22T04:27:00.712Z,61.10
2018-02-22T04:29:27.309Z,61.20
2018-02-22T04:31:53.867Z,61.10
2018-02-22T04:34:21.179Z,61.10
2018-02-22T04:36:47.742Z,61.00
2018-02-22T04:39:14.382Z,61.00
2018-02-22T04:41:40.941Z,61.20
2018-02-22T04:44:08.214Z,62.50
2018-02-22T04:46:34.747Z,61.60
2018-02-22T04:49:01.315Z,61.70
2018-02-22T04:51:27.875Z,62.10
2018-02-22T04:53:55.169Z,61.80
2018-02-22T04:56:21.759Z,61.80
2018-02-22T04:58:48.370Z,61.60
2018-02-22T05:01:14.914Z,62.00
2018-02-22T05:03:41.524Z,62.40
2018-02-22T05:06:08.118Z,62.60
2018-02-22T05:08:35.437Z,62.40
2018-02-22T05:11:02.042Z,62.30
2018-02-22T05:13:28.640Z,62.10
2018-02-22T05:15:55.222Z,62.10
2018-02-22T05:18:21.776Z,61.50
2018-02-22T05:20:50.095Z,61.70
2018-02-22T05:23:16.662Z,62.30
2018-02-22T05:25:43.246Z,61.90
2018-02-22T05:28:10.683Z,61.60
2018-02-22T05:30:37.393Z,61.60
2018-02-22T05:33:04.030Z,62.10
2018-02-22T05:35:30.592Z,61.90
2018-02-22T05:37:57.178Z,62.00
2018-02-22T05:40:23.718Z,62.30
2018-02-22T05:42:50.273Z,62.20
2018-02-22T05:45:16.870Z,61.50
2018-02-22T05:47:43.437Z,61.90
2018-02-22T05:50:10.749Z,61.50
2018-02-22T05:52:37.319Z,61.40
2018-02-22T05:55:04.618Z,61.40
2018-02-22T05:57:31.431Z,61.30
2018-02-22T05:59:57.990Z,61.70
2018-02-22T06:02:24.532Z,61.50
2018-02-22T06:04:51.084Z,61.50
2018-02-22T06:07:17.662Z,61.90
2018-02-22T06:09:44.974Z,61.40
2018-02-22T06:12:12.507Z,61.40
2018-02-22T06:14:39.093Z,60.90
2018-02-22T06:30:06.047Z,61.00
2018-02-22T06:32:32.625Z,60.90
2018-02-22T06:34:59.467Z,60.90
2018-02-22T06:37:26.048Z,60.90
2018-02-22T06:39:53.327Z,60.90
2018-02-22T06:42:19.922Z,60.90
2018-02-22T06:44:46.496Z,61.00
2018-02-22T06:47:13.047Z,61.00
2018-02-22T06:49:40.354Z,61.10
2018-02-22T06:52:06.926Z,61.00
2018-02-22T06:54:33.532Z,60.70
2018-02-22T06:57:00.088Z,59.80
2018-02-22T06:59:26.707Z,60.60
2018-02-22T07:01:54.063Z,60.00
2018-02-22T07:04:21.386Z,60.90
2018-02-22T07:06:47.962Z,60.10
2018-02-22T07:09:15.273Z,59.50
2018-02-22T07:11:41.841Z,59.40
2018-02-22T07:14:09.178Z,59.70
2018-02-22T07:16:35.793Z,59.70
2018-02-22T07:19:02.436Z,59.80
2018-02-22T07:21:29.014Z,59.90
2018-02-22T07:23:56.317Z,59.30
2018-02-22T07:26:22.898Z,59.30
2018-02-22T07:28:50.241Z,58.70
2018-02-22T07:31:17.028Z,58.70
2018-02-22T07:33:43.646Z,59.20
2018-02-22T07:36:10.215Z,58.90
2018-02-22T07:38:36.806Z,59.20
2018-02-22T07:41:04.190Z,58.60
2018-02-22T07:43:30.794Z,58.60
2018-02-22T07:45:57.445Z,58.10
2018-02-22T07:48:23.986Z,58.10
2018-02-22T07:50:51.284Z,58.40
2018-02-22T07:53:18.462Z,58.30
2018-02-22T07:55:45.055Z,57.90
2018-02-22T07:58:11.638Z,57.90
2018-02-22T08:00:38.434Z,58.10
2018-02-22T08:03:04.986Z,57.70
2018-02-22T08:05:31.558Z,58.20
2018-02-22T08:07:58.869Z,57.80
2018-02-22T08:10:25.413Z,57.60
2018-02-22T08:12:52.005Z,58.20
2018-02-22T08:15:18.586Z,57.60
2018-02-22T08:17:45.128Z,57.80
2018-02-22T08:20:11.721Z,57.40
2018-02-22T08:22:38.523Z,58.20
2018-02-22T08:25:05.067Z,58.30
2018-02-22T08:27:32.371Z,57.50
2018-02-22T08:29:58.972Z,57.50
2018-02-22T08:32:25.531Z,57.50
2018-02-22T08:34:52.117Z,57.40
2018-02-22T08:37:20.278Z,57.40
2018-02-22T08:39:46.828Z,57.40
2018-02-22T08:42:13.398Z,57.20
2018-02-22T08:44:39.979Z,56.90
2018-02-22T08:47:06.528Z,56.40
2018-02-22T08:49:33.189Z,55.90
2018-02-22T08:51:59.801Z,55.10
2018-02-22T08:54:26.327Z,56.20
2018-02-22T08:56:52.896Z,55.60
2018-02-22T08:59:20.510Z,56.20
2018-02-22T09:01:47.133Z,56.20
2018-02-22T09:04:13.691Z,55.80
2018-02-22T09:06:40.274Z,56.40
2018-02-22T09:09:06.834Z,55.70
2018-02-22T09:11:33.796Z,55.00
2018-02-22T09:14:00.354Z,55.10
2018-02-22T09:16:26.919Z,54.90
2018-02-22T09:18:54.479Z,55.30
2018-02-22T09:21:21.112Z,55.30
2018-02-22T09:23:48.392Z,54.70
2018-02-22T09:26:14.972Z,54.60
2018-02-22T09:28:41.523Z,55.50
2018-02-22T09:31:08.414Z,55.40
2018-02-22T09:33:34.974Z,54.90
2018-02-22T09:36:01.582Z,55.20
2018-02-22T09:38:28.549Z,55.20
2018-02-22T09:40:55.079Z,55.10
2018-02-22T09:43:21.623Z,54.20
2018-02-22T09:45:48.214Z,53.70
2018-02-22T09:48:15.523Z,54.30
2018-02-22T09:50:42.112Z,54.30
2018-02-22T09:53:09.478Z,53.90
2018-02-22T09:55:36.045Z,53.90
2018-02-22T09:58:02.585Z,53.90
2018-02-22T10:00:29.194Z,54.00
2018-02-22T10:02:55.789Z,53.10
2018-02-22T10:05:22.691Z,53.30
2018-02-22T10:07:49.251Z,53.40
2018-02-22T10:10:15.798Z,52.90
2018-02-22T10:12:42.413Z,53.00
2018-02-22T10:15:08.986Z,52.90
2018-02-22T10:17:35.614Z,51.80
2018-02-22T10:20:02.963Z,52.70
2018-02-22T10:22:29.564Z,52.60
2018-02-22T10:24:56.905Z,53.30
2018-02-22T10:27:23.506Z,53.30
2018-02-22T10:29:50.798Z,52.90
2018-02-22T10:32:17.390Z,52.80
2018-02-22T10:34:44.697Z,52.40
2018-02-22T10:37:11.266Z,52.30
2018-02-22T10:39:37.846Z,52.50
2018-02-22T10:42:04.485Z,51.80
2018-02-22T10:44:31.038Z,50.80
2018-02-22T10:46:57.623Z,50.00
2018-02-22T10:49:24.178Z,50.70
2018-02-22T10:51:50.772Z,51.10
2018-02-22T10:54:17.317Z,51.00
2018-02-22T10:56:43.881Z,50.50
2018-02-22T10:59:11.186Z,51.40
2018-02-22T11:01:43.687Z,51.30
2018-02-22T11:04:10.327Z,50.20
2018-02-22T11:06:36.913Z,51.10
2018-02-22T11:09:03.954Z,51.00
2018-02-22T11:11:30.559Z,51.10
2018-02-22T11:13:57.884Z,50.70
2018-02-22T11:16:24.482Z,50.70
2018-02-22T11:18:51.041Z,50.50
2018-02-22T11:21:17.631Z,50.50
2018-02-22T11:23:44.964Z,50.40
2018-02-22T11:26:11.702Z,50.60
2018-02-22T11:28:39.012Z,49.50
2018-02-22T11:31:05.586Z,49.40
2018-02-22T11:33:32.156Z,49.70
2018-02-22T11:35:58.721Z,49.70
2018-02-22T11:38:25.303Z,49.70
2018-02-22T11:40:51.858Z,48.30
2018-02-22T11:43:19.188Z,48.70
2018-02-22T11:45:46.519Z,47.00
2018-02-22T11:48:13.192Z,47.00
2018-02-22T11:50:39.800Z,47.10
2018-02-22T11:53:06.407Z,45.60
2018-02-22T11:55:33.033Z,46.70
2018-02-22T11:57:59.635Z,46.80
2018-02-22T12:00:26.271Z,45.60
2018-02-22T12:02:53.595Z,46.80
2018-02-22T12:05:20.215Z,46.60
2018-02-22T12:07:46.817Z,45.40
2018-02-22T12:10:13.402Z,46.60
2018-02-22T12:12:40.008Z,45.90
2018-02-22T12:15:06.555Z,46.00
2018-02-22T12:17:33.126Z,45.50
2018-02-22T12:19:59.731Z,45.50
2018-02-22T12:22:26.285Z,44.60
2018-02-22T12:24:52.864Z,45.10
2018-02-22T12:27:19.422Z,45.80
2018-02-22T12:29:46.029Z,46.80
2018-02-22T12:32:13.343Z,45.80
2018-02-22T12:34:39.907Z,45.80
2018-02-22T12:37:06.502Z,46.60
2018-02-22T12:39:33.155Z,45.30
2018-02-22T12:41:59.718Z,44.40
2018-02-22T12:44:26.342Z,45.50
2018-02-22T12:46:53.259Z,45.80
2018-02-22T12:49:19.966Z,45.70
2018-02-22T12:51:46.566Z,45.70
2018-02-22T12:54:13.146Z,45.70
2018-02-22T12:56:39.710Z,45.70
2018-02-22T12:59:06.290Z,45.90
2018-02-22T13:01:33.607Z,45.30
2018-02-22T13:04:00.224Z,45.30
2018-02-22T13:06:26.806Z,45.80
2018-02-22T13:08:53.355Z,45.90
2018-02-22T13:11:19.951Z,45.70
2018-02-22T13:13:46.576Z,45.80
2018-02-22T13:16:14.084Z,45.60
2018-02-22T13:18:41.449Z,45.90
2018-02-22T13:21:08.885Z,45.60
2018-02-22T13:23:35.509Z,45.60
2018-02-22T13:26:02.094Z,44.70
2018-02-22T13:28:28.710Z,44.80
2018-02-22T13:30:56.042Z,44.10
2018-02-22T13:33:40.969Z,43.90
2018-02-22T13:36:07.487Z,45.10
2018-02-22T13:38:52.557Z,45.10
2018-02-22T13:41:19.086Z,44.10
2018-02-22T13:43:45.743Z,45.80
2018-02-22T13:46:12.451Z,45.70
2018-02-22T13:48:57.437Z,45.90
2018-02-22T13:51:24.076Z,45.10
2018-02-22T13:53:50.773Z,45.00
2018-02-22T13:56:36.533Z,44.90
2018-02-22T13:59:03.119Z,44.90
2018-02-22T14:01:48.902Z,44.60
2018-02-22T14:04:15.462Z,44.40
2018-02-22T14:06:42.095Z,42.90
2018-02-22T14:09:09.422Z,44.00
2018-02-22T14:11:36.754Z,43.90
2018-02-22T14:14:03.335Z,43.80
2018-02-22T14:16:29.910Z,43.20
2018-02-22T14:18:56.507Z,44.00
2018-02-22T14:21:24.014Z,44.70
2018-02-22T14:23:50.611Z,44.70
2018-02-22T14:26:17.224Z,43.80
2018-02-22T14:28:43.837Z,44.60
2018-02-22T14:31:10.435Z,44.00
2018-02-22T14:33:37.061Z,44.10
2018-02-22T14:36:03.744Z,43.60
2018-02-22T14:38:30.353Z,44.20
2018-02-22T14:40:56.958Z,44.00
2018-02-22T14:43:23.570Z,44.00
2018-02-22T14:45:50.126Z,43.40
2018-02-22T14:48:17.114Z,43.60
2018-02-22T14:50:44.622Z,43.60
2018-02-22T14:53:11.995Z,43.60
2018-02-22T14:55:38.602Z,43.50
2018-02-22T14:58:05.162Z,44.40
2018-02-22T15:00:32.632Z,43.60
2018-02-22T15:02:59.212Z,43.70
2018-02-22T15:05:25.820Z,43.70
2018-02-22T15:07:52.675Z,43.50
2018-02-22T15:10:19.272Z,43.20
2018-02-22T15:12:45.831Z,44.60
2018-02-22T15:15:12.425Z,44.50
2018-02-22T15:17:39.750Z,44.50
2018-02-22T15:20:06.323Z,44.50
2018-02-22T15:22:33.651Z,44.40
2018-02-22T15:25:00.216Z,44.50
2018-02-22T15:27:27.555Z,44.20
2018-02-22T15:29:54.145Z,44.10
2018-02-22T15:32:20.755Z,44.00
2018-02-22T15:34:47.424Z,43.90
2018-02-22T15:37:14.015Z,44.70
2018-02-22T15:39:41.302Z,44.70
2018-02-22T15:42:07.927Z,44.00
2018-02-22T15:44:35.343Z,44.40
2018-02-22T15:47:01.958Z,44.40
2018-02-22T15:49:28.578Z,44.40
2018-02-22T15:51:55.149Z,44.60
2018-02-22T15:54:22.074Z,44.30
2018-02-22T15:56:49.597Z,44.30
2018-02-22T15:59:16.168Z,43.60
2018-02-22T16:01:42.838Z,43.80
2018-02-22T16:04:09.410Z,43.90
2018-02-22T16:06:36.118Z,43.40
2018-02-22T16:09:03.527Z,44.00
2018-02-22T16:11:30.162Z,43.20
2018-02-22T16:13:56.791Z,42.60
2018-02-22T16:16:23.338Z,43.90
2018-02-22T16:18:49.999Z,44.50
2018-02-22T16:21:16.581Z,44.80
2018-02-22T16:23:43.899Z,42.80
2018-02-22T16:26:10.533Z,42.80
2018-02-22T16:28:37.171Z,43.20
2018-02-22T16:31:03.773Z,43.70
2018-02-22T16:33:30.341Z,43.50
2018-02-22T16:35:56.903Z,42.60
2018-02-22T16:38:23.654Z,43.20
2018-02-22T16:40:50.218Z,43.30
2018-02-22T16:43:16.791Z,42.90
2018-02-22T16:45:43.690Z,42.50
2018-02-22T16:48:10.274Z,42.60
2018-02-22T16:50:36.862Z,42.50
2018-02-22T16:53:03.506Z,42.90
2018-02-22T16:55:30.107Z,43.10
2018-02-22T16:57:57.487Z,42.70
2018-02-22T17:00:24.067Z,42.70
2018-02-22T17:02:50.727Z,42.40
2018-02-22T17:05:17.318Z,43.50
2018-02-22T17:07:44.014Z,43.60
2018-02-22T17:10:10.631Z,43.40
2018-02-22T17:12:37.970Z,43.90
2018-02-22T17:15:05.349Z,44.10
2018-02-22T17:17:43.898Z,44.10
2018-02-22T17:20:10.580Z,44.10
2018-02-22T17:22:37.198Z,43.60
2018-02-22T17:25:03.818Z,43.90
2018-02-22T17:27:36.503Z,44.50
2018-02-22T17:30:09.115Z,43.80
2018-02-22T17:32:35.623Z,44.20
2018-02-22T17:35:02.283Z,44.00
2018-02-22T17:37:30.716Z,43.20
2018-02-22T17:53:20.156Z,44.10
2018-02-22T17:55:47.511Z,44.50
2018-02-22T17:58:14.919Z,44.80
2018-02-22T18:00:41.557Z,44.70
2018-02-22T18:03:08.172Z,44.70
2018-02-22T18:05:46.629Z,43.60
2018-02-22T18:08:13.228Z,44.30
2018-02-22T18:10:39.873Z,44.40
2018-02-22T18:13:06.456Z,44.30
2018-02-22T18:15:33.820Z,45.80
2018-02-22T18:18:00.514Z,44.90
2018-02-22T18:20:27.160Z,44.50
2018-02-22T18:22:53.764Z,45.20
2018-02-22T18:25:20.445Z,45.00
2018-02-22T18:27:47.063Z,44.30
2018-02-22T18:30:13.673Z,44.40
2018-02-22T18:32:40.264Z,44.90
2018-02-22T18:35:06.836Z,44.60
2018-02-22T18:37:39.598Z,44.60
2018-02-22T18:40:12.652Z,44.60
2018-02-22T18:42:46.269Z,44.80
2018-02-22T18:45:12.875Z,44.80
2018-02-22T18:47:39.509Z,44.60
2018-02-22T18:50:06.086Z,45.70
2018-02-22T18:52:32.905Z,45.70
2018-02-22T18:54:59.475Z,46.60
2018-02-22T18:57:26.805Z,45.70
2018-02-22T18:59:53.455Z,45.70
2018-02-22T19:02:20.818Z,45.70
2018-02-22T19:04:48.290Z,45.50
2018-02-22T19:07:14.902Z,45.40
2018-02-22T19:09:41.587Z,45.70
2018-02-22T19:12:08.176Z,45.70
2018-02-22T19:14:34.796Z,45.60
2018-02-22T19:17:02.171Z,45.70
2018-02-22T19:19:28.834Z,45.60
2018-02-22T19:21:56.136Z,45.60
2018-02-22T19:24:22.702Z,45.60
2018-02-22T19:26:49.291Z,45.70
2018-02-22T19:29:16.667Z,45.70
2018-02-22T19:31:43.296Z,45.70
2018-02-22T19:34:09.913Z,45.70
2018-02-22T19:36:36.582Z,45.70
2018-02-22T19:39:03.385Z,45.80
2018-02-22T19:41:30.036Z,45.70
2018-02-22T19:43:56.655Z,45.70
2018-02-22T19:46:23.419Z,45.00
2018-02-22T19:48:50.017Z,45.70
2018-02-22T19:51:17.315Z,45.70
2018-02-22T19:53:43.919Z,45.70
2018-02-22T19:56:10.560Z,45.70
2018-02-22T19:58:37.235Z,45.70
2018-02-22T20:01:03.835Z,45.70
2018-02-22T20:03:30.582Z,45.70
2018-02-22T20:05:57.211Z,45.60
2018-02-22T20:08:23.815Z,45.90
2018-02-22T20:10:51.237Z,46.00
2018-02-22T20:13:17.827Z,45.90
2018-02-22T20:15:44.459Z,45.60
2018-02-22T20:18:11.805Z,46.00
2018-02-22T20:20:39.171Z,45.90
2018-02-22T20:23:05.755Z,45.90
2018-02-22T20:25:33.109Z,45.60
2018-02-22T20:27:59.726Z,45.60
2018-02-22T20:30:26.316Z,45.60
2018-02-22T20:32:52.914Z,45.60
2018-02-22T20:35:20.583Z,45.60
2018-02-22T20:37:47.193Z,45.60
2018-02-22T20:40:13.776Z,45.80
2018-02-22T20:42:41.287Z,45.60
2018-02-22T20:45:07.950Z,45.60
2018-02-22T20:47:35.314Z,45.70
2018-02-22T20:50:01.923Z,45.60
2018-02-22T20:52:30.485Z,45.70
2018-02-22T20:55:01.913Z,45.70
2018-02-22T20:57:29.646Z,45.80
2018-02-22T20:59:56.247Z,45.70
2018-02-22T21:02:22.871Z,45.60
2018-02-22T21:04:50.214Z,45.80
2018-02-22T21:07:17.662Z,46.40
2018-02-22T21:09:45.024Z,45.70
2018-02-22T21:12:11.605Z,45.70
2018-02-22T21:14:38.242Z,45.70
2018-02-22T21:17:05.800Z,46.30
2018-02-22T21:19:32.399Z,45.60
2018-02-22T21:21:59.002Z,46.50
2018-02-22T21:24:25.609Z,45.50
2018-02-22T21:26:52.250Z,45.80
2018-02-22T21:29:18.876Z,46.70
2018-02-22T21:31:45.504Z,46.80
2018-02-22T21:34:12.119Z,46.30
2018-02-22T21:36:38.712Z,46.00
2018-02-22T21:39:05.280Z,45.50
2018-02-22T21:41:32.718Z,46.20
2018-02-22T21:43:59.327Z,46.20
2018-02-22T21:46:25.890Z,47.20
2018-02-22T21:48:53.345Z,45.90
2018-02-22T21:51:19.998Z,45.90
2018-02-22T21:53:47.626Z,47.30
2018-02-22T21:56:14.207Z,47.20
2018-02-22T21:58:40.859Z,45.50
2018-02-22T22:01:07.495Z,46.80
2018-02-22T22:03:34.116Z,46.60
2018-02-22T22:06:00.784Z,46.90
2018-02-22T22:08:27.390Z,47.00
2018-02-22T22:10:54.036Z,46.90
2018-02-22T22:13:20.727Z,47.30
2018-02-22T22:15:47.344Z,47.10
2018-02-22T22:18:13.970Z,46.40
2018-02-22T22:20:40.534Z,47.10
2018-02-22T22:23:07.121Z,47.10
2018-02-22T22:25:33.734Z,47.30
2018-02-22T22:28:00.341Z,47.60
2018-02-22T22:30:26.922Z,47.20
2018-02-22T22:32:54.282Z,48.00
2018-02-22T22:35:21.695Z,47.60
2018-02-22T22:37:48.269Z,47.60
2018-02-22T22:40:14.918Z,47.60
2018-02-22T22:42:41.533Z,47.20
2018-02-22T22:45:08.992Z,47.80
2018-02-22T22:47:35.558Z,47.70
2018-02-22T22:50:02.238Z,48.20
2018-02-22T22:52:29.593Z,48.50
2018-02-22T22:54:56.214Z,48.50
2018-02-22T22:57:22.815Z,47.90
2018-02-22T22:59:50.158Z,48.70
2018-02-22T23:02:16.714Z,48.60
2018-02-22T23:04:43.287Z,49.50
2018-02-22T23:07:09.880Z,48.80
2018-02-22T23:09:37.243Z,49.00
2018-02-22T23:12:03.918Z,49.10
2018-02-22T23:14:30.495Z,48.50
2018-02-22T23:16:57.099Z,49.30
2018-02-22T23:19:24.746Z,49.60
2018-02-22T23:21:51.330Z,49.50
2018-02-22T23:24:17.912Z,49.30
2018-02-22T23:26:44.499Z,49.90
2018-02-22T23:29:11.110Z,49.90
2018-02-22T23:31:37.668Z,50.40
2018-02-22T23:34:04.276Z,50.50
2018-02-22T23:36:30.834Z,49.90
2018-02-22T23:38:58.202Z,50.20
2018-02-22T23:41:30.794Z,50.20
2018-02-22T23:43:58.153Z,50.00
2018-02-22T23:46:25.473Z,50.80
2018-02-22T23:48:52.836Z,50.90
2018-02-22T23:51:20.167Z,50.70
2018-02-22T23:53:46.746Z,50.60
2018-02-22T23:56:14.022Z,51.20
2018-02-22T23:58:40.586Z,51.20
